createdAt,value
2022-08-22T00:02:15.228Z,87.15
2022-08-22T00:02:45.362Z,50.80
2022-08-22T00:02:56.172Z,58.81
2022-08-22T00:03:06.789Z,85.79
2022-08-22T00:03:08.941Z,86.25
2022-08-22T00:03:16.107Z,82.92
2022-08-22T00:04:50.097Z,86.44
2022-08-22T00:07:50.115Z,87.01
2022-08-22T00:10:29.694Z,87.40
2022-08-22T00:13:24.012Z,88.47
2022-08-22T00:16:05.407Z,88.66
2022-08-22T00:18:51.051Z,87.46
2022-08-22T00:21:32.402Z,87.88
2022-08-22T00:24:08.941Z,88.40
2022-08-22T00:27:18.155Z,88.02
2022-08-22T00:29:56.439Z,87.42
2022-08-22T00:32:36.769Z,88.26
2022-08-22T00:35:30.747Z,88.50
2022-08-22T00:38:12.590Z,89.60
2022-08-22T00:41:01.322Z,89.12
2022-08-22T00:43:41.057Z,89.22
2022-08-22T00:46:54.049Z,89.02
2022-08-22T00:49:52.067Z,89.19
2022-08-22T00:52:49.648Z,89.51
2022-08-22T00:55:45.430Z,90.30
2022-08-22T00:58:37.155Z,89.73
2022-08-22T01:01:11.360Z,88.52
2022-08-22T01:03:50.648Z,88.79
2022-08-22T01:06:45.339Z,88.18
2022-08-22T01:09:57.267Z,89.87
2022-08-22T01:12:56.894Z,89.90
2022-08-22T01:15:32.305Z,89.87
2022-08-22T01:18:20.942Z,88.92
2022-08-22T01:21:15.482Z,88.79
2022-08-22T01:24:03.787Z,88.77
2022-08-22T01:26:57.472Z,88.44
2022-08-22T01:29:30.814Z,89.74
2022-08-22T01:32:29.529Z,89.85
2022-08-22T01:35:14.978Z,89.57
2022-08-22T01:38:13.523Z,89.31
2022-08-22T01:41:23.316Z,89.35
2022-08-22T01:44:05.922Z,90.06
2022-08-22T01:47:07.985Z,89.71
2022-08-22T01:50:04.271Z,89.70
2022-08-22T01:52:44.923Z,89.92
2022-08-22T01:55:53.627Z,90.17
2022-08-22T01:58:28.915Z,90.23
2022-08-22T02:01:13.483Z,90.24
2022-08-22T02:03:53.234Z,89.92
2022-08-22T02:06:39.334Z,90.77
2022-08-22T02:09:54.197Z,90.90
2022-08-22T02:12:43.192Z,91.66
2022-08-22T02:15:23.082Z,92.20
2022-08-22T02:18:17.982Z,92.79
2022-08-22T02:21:32.654Z,91.42
2022-08-22T02:24:17.971Z,92.90
2022-08-22T02:26:59.465Z,92.94
2022-08-22T02:29:54.761Z,92.32
2022-08-22T02:32:36.741Z,92.35
2022-08-22T02:35:22.176Z,92.06
2022-08-22T02:38:11.849Z,91.96
2022-08-22T02:41:13.068Z,91.96
2022-08-22T02:44:10.532Z,91.62
2022-08-22T02:47:10.207Z,91.80
2022-08-22T02:50:20.582Z,91.61
2022-08-22T02:53:08.227Z,91.51
2022-08-22T02:55:57.128Z,92.73
2022-08-22T02:58:48.091Z,92.51
2022-08-22T03:01:31.085Z,92.50
2022-08-22T03:04:19.543Z,91.80
2022-08-22T03:07:23.366Z,92.39
2022-08-22T03:10:19.507Z,92.43
2022-08-22T03:13:26.046Z,92.20
2022-08-22T03:16:13.238Z,93.53
2022-08-22T03:19:43.015Z,93.95
2022-08-22T03:22:26.959Z,93.60
2022-08-22T03:25:20.620Z,93.54
2022-08-22T03:28:03.436Z,93.24
2022-08-22T03:30:45.468Z,93.26
2022-08-22T03:33:35.430Z,93.84
2022-08-22T03:36:10.816Z,93.97
2022-08-22T03:39:17.397Z,93.73
2022-08-22T03:42:20.165Z,93.48
2022-08-22T03:45:16.959Z,93.54
2022-08-22T03:48:15.973Z,94.13
2022-08-22T03:50:57.423Z,95.28
2022-08-22T03:53:48.802Z,94.63
2022-08-22T03:56:41.188Z,94.23
2022-08-22T03:59:32.654Z,94.80
2022-08-22T04:02:41.755Z,94.08
2022-08-22T04:04:58.285Z,93.31
2022-08-22T04:07:52.933Z,94.07
2022-08-22T04:11:02.456Z,93.80
2022-08-22T04:14:10.582Z,93.97
2022-08-22T04:16:56.273Z,94.32
2022-08-22T04:19:48.019Z,94.38
2022-08-22T04:22:30.426Z,95.31
2022-08-22T04:25:40.102Z,94.97
2022-08-22T04:28:36.079Z,94.58
2022-08-22T04:31:09.469Z,94.06
2022-08-22T04:33:59.184Z,94.49
2022-08-22T04:36:47.351Z,94.24
2022-08-22T04:39:24.233Z,93.57
2022-08-22T04:42:35.127Z,94.66
2022-08-22T04:45:21.715Z,94.59
2022-08-22T04:47:56.155Z,94.60
2022-08-22T04:50:30.715Z,94.50
2022-08-22T04:53:25.833Z,94.96
2022-08-22T04:56:08.019Z,94.31
2022-08-22T04:59:20.556Z,93.92
2022-08-22T05:02:00.558Z,95.40
2022-08-22T05:04:40.225Z,94.95
2022-08-22T05:07:39.245Z,95.14
2022-08-22T05:10:18.006Z,95.08
2022-08-22T05:12:56.622Z,95.36
2022-08-22T05:15:36.216Z,95.15
2022-08-22T05:18:14.917Z,95.29
2022-08-22T05:20:50.271Z,95.48
2022-08-22T05:23:20.804Z,95.35
2022-08-22T05:25:55.762Z,95.25
2022-08-22T05:28:28.962Z,95.39
2022-08-22T05:31:00.354Z,94.90
2022-08-22T05:33:39.698Z,95.60
2022-08-22T05:36:24.573Z,95.28
2022-08-22T05:39:25.295Z,95.53
2022-08-22T05:41:58.210Z,95.48
2022-08-22T05:44:34.497Z,95.27
2022-08-22T05:47:44.080Z,95.25
2022-08-22T05:50:51.123Z,95.18
2022-08-22T05:53:43.668Z,95.52
2022-08-22T05:56:33.147Z,96.22
2022-08-22T05:59:24.480Z,96.14
2022-08-22T06:02:04.184Z,96.35
2022-08-22T06:04:56.679Z,96.09
2022-08-22T06:07:35.461Z,96.49
2022-08-22T06:10:27.374Z,96.38
2022-08-22T06:13:16.936Z,96.05
2022-08-22T06:16:11.820Z,95.63
2022-08-22T06:18:45.064Z,95.48
2022-08-22T06:21:37.641Z,96.27
2022-08-22T06:24:16.030Z,96.37
2022-08-22T06:26:52.462Z,96.94
2022-08-22T06:29:45.754Z,96.41
2022-08-22T06:32:58.253Z,96.83
2022-08-22T06:35:30.030Z,96.87
2022-08-22T06:38:02.721Z,95.98
2022-08-22T06:40:33.930Z,97.14
2022-08-22T06:43:06.053Z,97.02
2022-08-22T06:45:37.761Z,97.30
2022-08-22T06:48:08.088Z,97.08
2022-08-22T06:50:44.789Z,96.72
2022-08-22T06:53:20.329Z,96.67
2022-08-22T06:55:58.720Z,96.73
2022-08-22T06:58:55.344Z,96.94
2022-08-22T07:01:30.892Z,96.19
2022-08-22T07:04:10.687Z,95.76
2022-08-22T07:06:47.573Z,95.97
2022-08-22T07:09:29.493Z,95.64
2022-08-22T07:12:03.724Z,95.76
2022-08-22T07:14:42.853Z,95.89
2022-08-22T07:17:23.334Z,96.33
2022-08-22T07:20:07.450Z,95.77
2022-08-22T07:22:39.300Z,96.48
2022-08-22T07:25:14.947Z,96.48
2022-08-22T07:27:54.769Z,96.30
2022-08-22T07:30:28.586Z,96.22
2022-08-22T07:33:26.811Z,95.98
2022-08-22T07:36:03.105Z,96.66
2022-08-22T07:38:33.445Z,96.62
2022-08-22T07:41:16.813Z,96.35
2022-08-22T07:44:07.943Z,95.45
2022-08-22T07:46:51.456Z,97.07
2022-08-22T07:49:39.914Z,97.57
2022-08-22T07:52:20.866Z,97.20
2022-08-22T07:54:59.331Z,97.32
2022-08-22T07:57:37.891Z,96.45
2022-08-22T08:00:15.674Z,96.47
2022-08-22T08:02:54.708Z,96.62
2022-08-22T08:05:29.682Z,96.35
2022-08-22T08:08:02.760Z,96.55
2022-08-22T08:10:36.798Z,96.35
2022-08-22T08:13:20.704Z,96.34
2022-08-22T08:15:52.712Z,95.82
2022-08-22T08:18:27.962Z,96.65
2022-08-22T08:21:04.920Z,97.45
2022-08-22T08:23:42.931Z,96.86
2022-08-22T08:26:22.573Z,97.34
2022-08-22T08:28:56.799Z,97.41
2022-08-22T08:31:43.394Z,97.05
2022-08-22T08:34:25.723Z,96.88
2022-08-22T08:37:04.088Z,96.75
2022-08-22T08:39:49.802Z,96.51
2022-08-22T08:43:22.249Z,96.53
2022-08-22T08:46:19.547Z,96.29
2022-08-22T08:49:25.789Z,96.37
2022-08-22T08:52:17.482Z,96.98
2022-08-22T08:55:21.908Z,97.32
2022-08-22T08:58:22.402Z,97.02
2022-08-22T09:00:57.689Z,96.77
2022-08-22T09:03:59.729Z,96.17
2022-08-22T09:06:43.174Z,96.12
2022-08-22T09:09:52.507Z,96.35
2022-08-22T09:13:11.512Z,96.38
2022-08-22T09:16:05.327Z,96.78
2022-08-22T09:19:09.907Z,96.61
2022-08-22T09:22:15.039Z,96.72
2022-08-22T09:24:53.124Z,96.83
2022-08-22T09:27:39.310Z,97.07
2022-08-22T09:30:16.916Z,97.55
2022-08-22T09:33:13.789Z,97.50
2022-08-22T09:36:05.666Z,98.26
2022-08-22T09:38:55.614Z,98.02
2022-08-22T09:41:52.256Z,97.64
2022-08-22T09:44:40.560Z,97.59
2022-08-22T09:47:24.723Z,98.30
2022-08-22T09:50:21.769Z,98.76
2022-08-22T09:52:58.566Z,99.19
2022-08-22T09:55:40.137Z,99.20
2022-08-22T09:58:24.853Z,99.12
2022-08-22T10:01:08.343Z,99.05
2022-08-22T10:03:47.864Z,98.88
2022-08-22T10:06:30.181Z,98.68
2022-08-22T10:09:05.184Z,98.86
2022-08-22T10:11:51.292Z,99.05
2022-08-22T10:14:29.878Z,99.21
2022-08-22T10:17:07.138Z,99.43
2022-08-22T10:19:54.225Z,98.56
2022-08-22T10:23:09.367Z,98.89
2022-08-22T10:25:54.737Z,99.33
2022-08-22T10:28:49.086Z,98.89
2022-08-22T10:31:25.593Z,98.83
2022-08-22T10:34:12.006Z,99.17
2022-08-22T10:37:01.705Z,98.74
2022-08-22T10:39:48.862Z,98.85
2022-08-22T10:42:35.357Z,98.75
2022-08-22T10:45:23.944Z,98.71
2022-08-22T10:48:12.498Z,98.88
2022-08-22T10:50:50.490Z,98.86
2022-08-22T10:53:44.704Z,98.73
2022-08-22T10:56:21.378Z,98.73
2022-08-22T10:59:02.482Z,98.76
2022-08-22T11:01:47.439Z,98.49
2022-08-22T11:04:30.869Z,98.22
2022-08-22T11:07:39.584Z,98.52
2022-08-22T11:10:22.477Z,98.10
2022-08-22T11:13:23.339Z,98.25
2022-08-22T11:16:04.389Z,98.07
2022-08-22T11:19:14.743Z,98.14
2022-08-22T11:22:07.302Z,97.88
2022-08-22T11:25:04.399Z,97.44
2022-08-22T11:28:02.888Z,96.97
2022-08-22T11:31:13.968Z,96.94
2022-08-22T11:34:13.325Z,96.87
2022-08-22T11:36:56.303Z,96.77
2022-08-22T11:39:49.094Z,96.12
2022-08-22T11:42:29.529Z,96.08
2022-08-22T11:45:07.461Z,96.31
2022-08-22T11:47:49.489Z,95.70
2022-08-22T11:50:30.830Z,95.11
2022-08-22T11:53:15.187Z,95.37
2022-08-22T11:55:58.315Z,95.27
2022-08-22T11:58:55.229Z,95.61
2022-08-22T12:01:34.285Z,95.77
2022-08-22T12:04:15.361Z,95.59
2022-08-22T12:06:49.674Z,95.24
2022-08-22T12:09:41.249Z,95.09
2022-08-22T12:12:27.429Z,95.16
2022-08-22T12:15:08.912Z,94.55
2022-08-22T12:17:55.267Z,93.90
2022-08-22T12:20:56.192Z,93.32
2022-08-22T12:23:48.622Z,93.51
2022-08-22T12:27:08.224Z,92.82
2022-08-22T12:30:06.037Z,91.34
2022-08-22T12:33:08.529Z,91.28
2022-08-22T12:36:09.602Z,91.62
2022-08-22T12:39:21.344Z,90.48
2022-08-22T12:42:12.522Z,88.68
2022-08-22T12:44:54.744Z,88.74
2022-08-22T12:48:01.797Z,87.71
2022-08-22T12:50:53.656Z,87.14
2022-08-22T12:53:58.113Z,89.01
2022-08-22T12:57:24.382Z,87.71
2022-08-22T13:00:11.696Z,86.37
2022-08-22T13:02:46.337Z,86.69
2022-08-22T13:05:22.340Z,85.29
2022-08-22T13:08:04.545Z,85.08
2022-08-22T13:10:44.732Z,84.45
2022-08-22T13:13:36.925Z,85.95
2022-08-22T13:16:20.995Z,85.35
2022-08-22T13:19:07.652Z,84.33
2022-08-22T13:21:51.320Z,84.06
2022-08-22T13:24:52.426Z,82.75
2022-08-22T13:27:30.291Z,83.98
2022-08-22T13:30:14.753Z,83.74
2022-08-22T13:32:58.431Z,83.72
2022-08-22T13:35:44.693Z,83.14
2022-08-22T13:38:56.249Z,83.35
2022-08-22T13:41:42.706Z,83.76
2022-08-22T13:44:21.712Z,82.78
2022-08-22T13:47:12.946Z,82.96
2022-08-22T13:49:55.850Z,83.45
2022-08-22T13:52:38.077Z,82.39
2022-08-22T13:55:27.651Z,82.15
2022-08-22T13:58:18.864Z,81.90
2022-08-22T14:01:31.054Z,81.84
2022-08-22T14:04:01.542Z,79.44
2022-08-22T14:06:58.446Z,79.70
2022-08-22T14:10:04.203Z,79.10
2022-08-22T14:12:58.908Z,79.06
2022-08-22T14:15:45.442Z,77.16
2022-08-22T14:18:30.417Z,76.91
2022-08-22T14:21:40.908Z,77.04
2022-08-22T14:24:55.802Z,76.92
2022-08-22T14:27:47.706Z,76.37
2022-08-22T14:30:35.745Z,76.18
2022-08-22T14:33:32.879Z,77.09
2022-08-22T14:36:14.564Z,76.32
2022-08-22T14:39:31.387Z,75.59
2022-08-22T14:42:28.831Z,75.69
2022-08-22T14:45:10.161Z,75.68
2022-08-22T14:48:14.255Z,74.01
2022-08-22T14:51:04.196Z,74.82
2022-08-22T14:53:38.113Z,74.88
2022-08-22T14:56:19.960Z,74.00
2022-08-22T14:58:53.577Z,72.94
2022-08-22T15:01:29.694Z,74.04
2022-08-22T15:04:11.011Z,73.29
2022-08-22T15:06:52.615Z,72.54
2022-08-22T15:09:37.161Z,72.42
2022-08-22T15:12:28.845Z,72.34
2022-08-22T15:15:09.393Z,71.40
2022-08-22T15:17:50.812Z,72.00
2022-08-22T15:20:49.386Z,71.34
2022-08-22T15:23:25.971Z,70.48
2022-08-22T15:26:13.260Z,71.13
2022-08-22T15:28:44.978Z,70.16
2022-08-22T15:31:24.229Z,69.80
2022-08-22T15:34:06.484Z,69.74
2022-08-22T15:36:36.999Z,69.32
2022-08-22T15:39:37.945Z,71.63
2022-08-22T15:42:08.711Z,72.31
2022-08-22T15:44:44.183Z,71.63
2022-08-22T15:47:40.951Z,73.47
2022-08-22T15:50:29.697Z,71.58
2022-08-22T15:53:26.494Z,70.27
2022-08-22T15:56:08.921Z,72.66
2022-08-22T15:58:48.859Z,70.42
2022-08-22T16:01:25.828Z,68.52
2022-08-22T16:04:02.219Z,68.21
2022-08-22T16:06:57.874Z,69.59
2022-08-22T16:09:48.695Z,71.30
2022-08-22T16:12:37.188Z,69.87
2022-08-22T16:15:29.585Z,67.63
2022-08-22T16:18:01.198Z,66.94
2022-08-22T16:20:31.612Z,66.43
2022-08-22T16:23:01.885Z,66.66
2022-08-22T16:25:47.012Z,69.43
2022-08-22T16:28:57.412Z,68.12
2022-08-22T16:31:34.430Z,65.74
2022-08-22T16:34:19.740Z,66.10
2022-08-22T16:36:53.284Z,65.35
2022-08-22T16:39:23.699Z,65.26
2022-08-22T16:42:17.195Z,64.66
2022-08-22T16:45:13.763Z,61.46
2022-08-22T16:47:58.687Z,61.80
2022-08-22T16:50:35.576Z,60.90
2022-08-22T16:53:23.977Z,61.64
2022-08-22T16:56:06.623Z,59.34
2022-08-22T16:59:22.335Z,59.86
2022-08-22T17:02:13.161Z,60.76
2022-08-22T17:04:58.883Z,60.66
2022-08-22T17:07:41.612Z,59.83
2022-08-22T17:10:30.222Z,58.97
2022-08-22T17:13:15.744Z,57.23
2022-08-22T17:15:52.258Z,57.85
2022-08-22T17:18:41.448Z,58.18
2022-08-22T17:21:40.607Z,56.75
2022-08-22T17:24:37.979Z,55.13
2022-08-22T17:27:30.562Z,55.42
2022-08-22T17:30:11.741Z,55.01
2022-08-22T17:32:57.180Z,56.51
2022-08-22T17:35:47.049Z,53.61
2022-08-22T17:38:35.887Z,53.20
2022-08-22T17:41:23.786Z,53.49
2022-08-22T17:44:06.296Z,52.24
2022-08-22T17:46:54.777Z,51.68
2022-08-22T17:49:40.300Z,51.82
2022-08-22T17:52:13.736Z,49.83
2022-08-22T17:55:02.214Z,51.17
2022-08-22T17:57:41.101Z,50.58
2022-08-22T18:00:25.538Z,52.94
2022-08-22T18:03:27.062Z,50.76
2022-08-22T18:06:18.942Z,50.46
2022-08-22T18:09:18.550Z,50.66
2022-08-22T18:12:04.841Z,48.62
2022-08-22T18:14:56.542Z,50.25
2022-08-22T18:17:59.283Z,49.65
2022-08-22T18:20:46.001Z,49.01
2022-08-22T18:23:42.835Z,48.97
2022-08-22T18:26:40.676Z,48.80
2022-08-22T18:29:20.857Z,52.17
2022-08-22T18:31:51.314Z,52.13
2022-08-22T18:34:25.442Z,52.85
2022-08-22T18:37:05.492Z,58.09
2022-08-22T18:39:56.386Z,65.77
2022-08-22T18:42:45.538Z,66.93
2022-08-22T18:45:47.489Z,62.86
2022-08-22T18:48:25.028Z,66.92
2022-08-22T18:51:29.112Z,68.17
2022-08-22T18:54:08.243Z,67.50
2022-08-22T18:56:51.595Z,69.88
2022-08-22T18:59:44.499Z,70.24
2022-08-22T19:02:23.947Z,71.28
2022-08-22T19:05:13.089Z,71.33
2022-08-22T19:08:12.949Z,72.45
2022-08-22T19:10:53.858Z,72.13
2022-08-22T19:13:48.890Z,72.65
2022-08-22T19:16:21.783Z,73.62
2022-08-22T19:19:17.106Z,73.66
2022-08-22T19:22:21.769Z,74.22
2022-08-22T19:25:16.105Z,74.96
2022-08-22T19:28:07.483Z,74.51
2022-08-22T19:30:51.408Z,74.81
2022-08-22T19:33:39.738Z,75.70
2022-08-22T19:36:34.877Z,76.81
2022-08-22T19:39:43.460Z,77.05
2022-08-22T19:42:20.873Z,77.79
2022-08-22T19:45:01.981Z,78.39
2022-08-22T19:48:14.121Z,78.66
2022-08-22T19:50:45.468Z,79.28
2022-08-22T19:53:29.214Z,79.20
2022-08-22T19:56:05.578Z,79.69
2022-08-22T19:58:58.024Z,80.04
2022-08-22T20:01:44.433Z,80.55
2022-08-22T20:04:48.971Z,80.72
2022-08-22T20:07:47.421Z,80.79
2022-08-22T20:10:29.624Z,81.30
2022-08-22T20:13:13.073Z,81.34
2022-08-22T20:16:15.234Z,81.93
2022-08-22T20:19:06.669Z,81.29
2022-08-22T20:21:47.430Z,81.73
2022-08-22T20:24:29.583Z,82.46
2022-08-22T20:27:13.912Z,82.95
2022-08-22T20:30:05.878Z,83.16
2022-08-22T20:32:46.587Z,83.19
2022-08-22T20:35:36.129Z,83.16
2022-08-22T20:38:12.608Z,83.24
2022-08-22T20:40:55.355Z,83.56
2022-08-22T20:43:38.481Z,83.97
2022-08-22T20:46:16.574Z,84.57
2022-08-22T20:48:48.938Z,84.62
2022-08-22T20:51:28.519Z,84.93
2022-08-22T20:54:17.152Z,85.15
2022-08-22T20:56:53.971Z,85.38
2022-08-22T20:59:32.643Z,85.59
2022-08-22T21:02:30.369Z,85.67
2022-08-22T21:05:08.174Z,85.86
2022-08-22T21:07:44.895Z,85.94
2022-08-22T21:10:41.694Z,86.16
2022-08-22T21:13:23.224Z,86.22
2022-08-22T21:15:55.476Z,86.47
2022-08-22T21:18:41.031Z,86.72
2022-08-22T21:21:17.027Z,86.89
2022-08-22T21:23:52.559Z,86.85
2022-08-22T21:26:37.873Z,86.92
2022-08-22T21:29:10.536Z,87.16
2022-08-22T21:31:49.765Z,87.13
2022-08-22T21:34:44.749Z,87.21
2022-08-22T21:37:25.334Z,87.52
2022-08-22T21:40:03.358Z,87.59
2022-08-22T21:42:41.775Z,87.35
2022-08-22T21:45:52.253Z,87.07
2022-08-22T21:48:58.329Z,86.97
2022-08-22T21:51:45.907Z,86.91
2022-08-22T21:54:31.109Z,86.82
2022-08-22T21:57:17.360Z,87.24
2022-08-22T21:59:59.778Z,87.18
2022-08-22T22:02:35.294Z,87.07
2022-08-22T22:05:20.553Z,86.81
2022-08-22T22:07:50.824Z,86.78
2022-08-22T22:10:23.890Z,86.69
2022-08-22T22:12:57.846Z,86.83
2022-08-22T22:15:33.093Z,86.64
2022-08-22T22:18:03.482Z,86.59
2022-08-22T22:20:34.727Z,86.60
2022-08-22T22:23:05.859Z,86.67
2022-08-22T22:25:40.786Z,86.56
2022-08-22T22:28:18.042Z,86.85
2022-08-22T22:30:51.876Z,86.99
2022-08-22T22:33:24.640Z,87.01
2022-08-22T22:35:59.028Z,87.19
2022-08-22T22:38:29.562Z,87.19
2022-08-22T22:41:00.585Z,87.03
2022-08-22T22:43:31.370Z,87.22
2022-08-22T22:46:02.649Z,87.39
2022-08-22T22:48:34.121Z,87.20
2022-08-22T22:51:13.707Z,87.33
2022-08-22T22:53:46.127Z,87.44
2022-08-22T22:56:21.245Z,87.55
2022-08-22T22:59:00.953Z,87.69
2022-08-22T23:02:02.755Z,87.40
2022-08-22T23:04:35.701Z,87.68
2022-08-22T23:07:07.496Z,87.64
2022-08-22T23:09:44.530Z,87.85
2022-08-22T23:12:16.824Z,87.87
2022-08-22T23:14:47.302Z,88.33
2022-08-22T23:17:18.757Z,88.30
2022-08-22T23:19:49.418Z,88.28
2022-08-22T23:22:20.929Z,88.34
2022-08-22T23:24:51.852Z,88.47
2022-08-22T23:27:22.699Z,88.06
2022-08-22T23:29:53.269Z,88.10
2022-08-22T23:32:23.855Z,88.38
2022-08-22T23:34:55.840Z,88.25
2022-08-22T23:37:26.358Z,88.63
2022-08-22T23:39:56.220Z,87.91
2022-08-22T23:42:26.709Z,88.76
2022-08-22T23:44:56.547Z,88.61
2022-08-22T23:47:26.657Z,89.07
2022-08-22T23:49:57.007Z,88.75
2022-08-22T23:52:27.564Z,89.40
2022-08-22T23:54:58.211Z,89.01
2022-08-22T23:57:30.002Z,89.41
